createdAt,value
2022-08-03T00:01:40.250Z,99353.63
2022-08-03T00:04:08.206Z,99355.13
2022-08-03T00:06:37.329Z,99351.13
2022-08-03T00:09:05.754Z,99356.13
2022-08-03T00:11:33.352Z,99355.38
2022-08-03T00:14:00.191Z,99356.31
2022-08-03T00:16:26.920Z,99351.16
2022-08-03T00:18:55.277Z,99357.13
2022-08-03T00:21:22.096Z,99357.97
2022-08-03T00:23:52.300Z,99352.44
2022-08-03T00:26:21.084Z,99355.53
2022-08-03T00:28:48.518Z,99369.41
2022-08-03T00:31:15.258Z,99360.13
2022-08-03T00:33:58.959Z,99353.97
2022-08-03T00:36:27.586Z,99355.88
2022-08-03T00:38:54.547Z,99355.69
2022-08-03T00:41:21.334Z,99359.19
2022-08-03T00:43:48.139Z,99358.34
2022-08-03T00:46:19.197Z,99356.66
2022-08-03T00:48:49.589Z,99358.34
2022-08-03T00:51:16.763Z,99355.03
2022-08-03T00:53:43.644Z,99351.97
2022-08-03T00:56:14.560Z,99350.50
2022-08-03T00:58:43.712Z,99345.13
2022-08-03T01:01:12.399Z,99352.56
2022-08-03T01:03:39.507Z,99348.00
2022-08-03T01:06:57.099Z,99348.75
2022-08-03T01:09:39.624Z,99353.06
2022-08-03T01:12:25.244Z,99353.66
2022-08-03T01:14:58.624Z,99358.41
2022-08-03T01:17:32.135Z,99358.84
2022-08-03T01:20:08.041Z,99351.13
2022-08-03T01:22:50.181Z,99355.06
2022-08-03T01:25:36.727Z,99364.03
2022-08-03T01:28:28.471Z,99358.03
2022-08-03T01:31:01.509Z,99348.56
2022-08-03T01:33:40.704Z,99356.81
2022-08-03T01:36:22.135Z,99352.28
2022-08-03T01:38:54.096Z,99355.38
2022-08-03T01:41:26.347Z,99347.94
2022-08-03T01:43:55.506Z,99350.88
2022-08-03T01:46:47.675Z,99345.72
2022-08-03T01:49:17.633Z,99348.41
2022-08-03T01:52:04.611Z,99342.47
2022-08-03T01:54:37.816Z,99347.25
2022-08-03T01:57:05.820Z,99336.41
2022-08-03T01:59:36.467Z,99335.94
2022-08-03T02:02:28.935Z,99346.91
2022-08-03T02:04:55.866Z,99345.44
2022-08-03T02:07:23.803Z,99339.28
2022-08-03T02:09:53.783Z,99339.25
2022-08-03T02:12:22.397Z,99339.28
2022-08-03T02:14:50.222Z,99331.88
2022-08-03T02:17:17.344Z,99338.50
2022-08-03T02:19:45.381Z,99338.09
2022-08-03T02:22:14.011Z,99336.00
2022-08-03T02:24:41.102Z,99339.72
2022-08-03T02:27:19.982Z,99337.25
2022-08-03T02:29:51.014Z,99341.81
2022-08-03T02:32:21.502Z,99340.97
2022-08-03T02:34:51.760Z,99338.13
2022-08-03T02:37:20.168Z,99343.28
2022-08-03T02:39:49.309Z,99334.63
2022-08-03T02:42:17.163Z,99339.28
2022-08-03T02:44:48.495Z,99345.88
2022-08-03T02:47:20.939Z,99348.63
2022-08-03T02:49:52.140Z,99354.59
2022-08-03T02:52:24.490Z,99350.06
2022-08-03T02:54:56.667Z,99350.28
2022-08-03T02:57:26.737Z,99353.56
2022-08-03T02:59:55.484Z,99353.16
2022-08-03T03:02:23.006Z,99358.31
2022-08-03T03:05:53.401Z,99360.34
2022-08-03T03:07:52.016Z,99361.38
2022-08-03T03:10:24.769Z,99370.25
2022-08-03T03:12:55.304Z,99364.28
2022-08-03T03:15:24.460Z,99362.84
2022-08-03T03:17:51.963Z,99369.84
2022-08-03T03:20:26.726Z,99371.09
2022-08-03T03:22:59.868Z,99370.66
2022-08-03T03:25:27.319Z,99368.59
2022-08-03T03:27:54.600Z,99364.91
2022-08-03T03:30:21.462Z,99375.19
2022-08-03T03:32:48.574Z,99370.66
2022-08-03T03:35:16.665Z,99371.91
2022-08-03T03:37:43.418Z,99371.09
2022-08-03T03:40:10.777Z,99376.25
2022-08-03T03:42:38.412Z,99373.34
2022-08-03T03:45:08.689Z,99375.44
2022-08-03T03:47:35.855Z,99372.94
2022-08-03T03:50:06.893Z,99371.50
2022-08-03T03:52:34.423Z,99370.66
2022-08-03T03:55:01.771Z,99374.78
2022-08-03T03:57:29.386Z,99380.53
2022-08-03T03:59:56.243Z,99374.34
2022-08-03T04:02:23.035Z,99372.31
2022-08-03T04:05:08.511Z,99375.38
2022-08-03T04:08:05.190Z,99381.38
2022-08-03T04:10:54.112Z,99379.06
2022-08-03T04:13:22.159Z,99378.47
2022-08-03T04:15:50.573Z,99381.94
2022-08-03T04:18:19.079Z,99380.31
2022-08-03T04:20:49.019Z,99379.66
2022-08-03T04:23:18.876Z,99389.09
2022-08-03T04:25:49.039Z,99383.25
2022-08-03T04:28:30.502Z,99383.63
2022-08-03T04:31:01.399Z,99396.41
2022-08-03T04:33:31.244Z,99387.31
2022-08-03T04:36:03.736Z,99395.31
2022-08-03T04:38:33.980Z,99394.69
2022-08-03T04:41:01.527Z,99393.06
2022-08-03T04:43:29.705Z,99394.66
2022-08-03T04:45:57.704Z,99401.31
2022-08-03T04:48:24.737Z,99391.13
2022-08-03T04:50:52.087Z,99400.41
2022-08-03T04:53:19.588Z,99399.16
2022-08-03T04:55:46.901Z,99400.13
2022-08-03T04:58:13.671Z,99406.22
2022-08-03T05:00:40.378Z,99403.03
2022-08-03T05:03:23.653Z,99404.63
2022-08-03T05:06:01.818Z,99399.44
2022-08-03T05:08:36.250Z,99405.59
2022-08-03T05:11:13.293Z,99411.13
2022-08-03T05:13:39.921Z,99409.16
2022-08-03T05:16:07.712Z,99413.28
2022-08-03T05:18:35.844Z,99413.28
2022-08-03T05:21:02.671Z,99412.06
2022-08-03T05:23:29.502Z,99416.69
2022-08-03T05:25:56.344Z,99413.47
2022-08-03T05:28:23.500Z,99423.44
2022-08-03T05:30:50.137Z,99422.28
2022-08-03T05:33:16.869Z,99420.44
2022-08-03T05:36:01.594Z,99423.22
2022-08-03T05:38:34.531Z,99426.16
2022-08-03T05:41:22.649Z,99427.81
2022-08-03T05:43:54.939Z,99423.47
2022-08-03T05:46:24.768Z,99425.19
2022-08-03T05:48:52.175Z,99426.63
2022-08-03T05:51:19.078Z,99428.50
2022-08-03T05:53:46.546Z,99427.63
2022-08-03T05:56:15.954Z,99423.03
2022-08-03T05:58:45.527Z,99421.25
2022-08-03T06:01:12.328Z,99418.81
2022-08-03T06:03:39.175Z,99425.59
2022-08-03T06:06:05.962Z,99426.66
2022-08-03T06:08:33.023Z,99419.72
2022-08-03T06:10:59.961Z,99420.69
2022-08-03T06:13:26.649Z,99429.44
2022-08-03T06:15:53.331Z,99424.59
2022-08-03T06:18:22.437Z,99422.13
2022-08-03T06:20:49.406Z,99420.56
2022-08-03T06:23:17.661Z,99422.34
2022-08-03T06:25:44.977Z,99423.53
2022-08-03T06:28:35.329Z,99423.25
2022-08-03T06:31:01.032Z,99424.31
2022-08-03T06:34:31.508Z,99428.25
2022-08-03T06:36:15.181Z,99426.00
2022-08-03T06:38:41.906Z,99425.94
2022-08-03T06:41:08.625Z,99434.31
2022-08-03T06:43:37.634Z,99425.06
2022-08-03T06:46:05.670Z,99429.06
2022-08-03T06:48:32.562Z,99434.50
2022-08-03T06:50:59.460Z,99432.03
2022-08-03T06:53:26.372Z,99434.91
2022-08-03T06:55:54.866Z,99432.38
2022-08-03T06:58:23.024Z,99437.06
2022-08-03T07:00:50.367Z,99433.44
2022-08-03T07:03:17.467Z,99432.22
2022-08-03T07:05:46.582Z,99435.09
2022-08-03T07:08:14.376Z,99434.97
2022-08-03T07:10:41.161Z,99438.19
2022-08-03T07:13:08.271Z,99433.09
2022-08-03T07:15:53.793Z,99435.97
2022-08-03T07:18:24.582Z,99440.50
2022-08-03T07:20:57.169Z,99436.31
2022-08-03T07:23:23.998Z,99436.22
2022-08-03T07:25:50.959Z,99433.09
2022-08-03T07:28:18.115Z,99439.44
2022-08-03T07:30:44.923Z,99436.53
2022-08-03T07:33:11.871Z,99438.16
2022-08-03T07:35:39.002Z,99437.94
2022-08-03T07:38:05.688Z,99437.91
2022-08-03T07:40:32.524Z,99427.44
2022-08-03T07:43:00.212Z,99436.66
2022-08-03T07:45:27.057Z,99423.97
2022-08-03T07:47:56.269Z,99420.84
2022-08-03T07:50:23.495Z,99424.84
2022-08-03T07:52:51.746Z,99425.31
2022-08-03T07:55:25.113Z,99432.63
2022-08-03T07:58:06.421Z,99424.06
2022-08-03T08:00:34.088Z,99422.44
2022-08-03T08:03:00.946Z,99422.56
2022-08-03T08:05:28.387Z,99433.44
2022-08-03T08:07:56.048Z,99432.41
2022-08-03T08:10:22.911Z,99425.28
2022-08-03T08:12:52.089Z,99430.34
2022-08-03T08:15:18.903Z,99430.44
2022-08-03T08:17:47.215Z,99426.91
2022-08-03T08:20:23.793Z,99420.63
2022-08-03T08:22:57.955Z,99420.94
2022-08-03T08:25:25.601Z,99423.63
2022-08-03T08:28:31.107Z,99428.16
2022-08-03T08:30:39.871Z,99429.88
2022-08-03T08:33:22.329Z,99430.50
2022-08-03T08:35:51.324Z,99432.25
2022-08-03T08:38:18.526Z,99431.19
2022-08-03T08:40:45.577Z,99428.31
2022-08-03T08:43:12.258Z,99430.75
2022-08-03T08:45:41.107Z,99432.66
2022-08-03T08:48:08.499Z,99432.88
2022-08-03T08:50:38.192Z,99429.88
2022-08-03T08:53:09.736Z,99429.13
2022-08-03T08:55:58.897Z,99426.94
2022-08-03T08:58:28.568Z,99427.50
2022-08-03T09:00:55.646Z,99423.66
2022-08-03T09:03:30.167Z,99420.19
2022-08-03T09:06:00.494Z,99435.88
2022-08-03T09:08:27.827Z,99421.78
2022-08-03T09:10:54.524Z,99420.75
2022-08-03T09:13:21.352Z,99419.66
2022-08-03T09:15:57.265Z,99424.50
2022-08-03T09:18:32.606Z,99418.56
2022-08-03T09:21:31.123Z,99412.81
2022-08-03T09:24:03.360Z,99417.94
2022-08-03T09:26:33.200Z,99411.75
2022-08-03T09:29:14.850Z,99414.34
2022-08-03T09:31:46.628Z,99407.00
2022-08-03T09:34:16.012Z,99402.69
2022-08-03T09:36:44.687Z,99406.94
2022-08-03T09:39:41.487Z,99406.13
2022-08-03T09:42:10.237Z,99403.72
2022-08-03T09:44:40.207Z,99407.44
2022-08-03T09:47:06.984Z,99409.66
2022-08-03T09:49:33.902Z,99397.72
2022-08-03T09:52:31.835Z,99389.50
2022-08-03T09:55:02.830Z,99396.72
2022-08-03T09:57:32.503Z,99391.41
2022-08-03T10:00:13.261Z,99387.34
2022-08-03T10:02:41.740Z,99390.22
2022-08-03T10:05:11.052Z,99386.97
2022-08-03T10:07:50.754Z,99386.84
2022-08-03T10:10:28.987Z,99382.44
2022-08-03T10:13:00.298Z,99386.06
2022-08-03T10:16:23.346Z,99381.81
2022-08-03T10:18:14.406Z,99384.75
2022-08-03T10:20:49.896Z,99373.19
2022-08-03T10:23:18.064Z,99368.41
2022-08-03T10:25:49.512Z,99372.38
2022-08-03T10:28:19.794Z,99366.97
2022-08-03T10:30:51.312Z,99365.59
2022-08-03T10:33:50.971Z,99367.63
2022-08-03T10:36:18.389Z,99355.50
2022-08-03T10:38:49.597Z,99354.72
2022-08-03T10:41:18.630Z,99359.72
2022-08-03T10:44:08.585Z,99354.25
2022-08-03T10:46:39.284Z,99347.66
2022-08-03T10:49:16.124Z,99349.72
2022-08-03T10:51:44.966Z,99357.41
2022-08-03T10:54:58.144Z,99345.88
2022-08-03T10:57:43.343Z,99340.78
2022-08-03T11:00:14.210Z,99350.03
2022-08-03T11:03:02.897Z,99346.75
2022-08-03T11:05:31.626Z,99338.13
2022-08-03T11:08:21.564Z,99335.88
2022-08-03T11:10:50.402Z,99333.66
2022-08-03T11:13:19.438Z,99333.22
2022-08-03T11:15:48.149Z,99333.38
2022-08-03T11:18:15.878Z,99335.84
2022-08-03T11:20:51.678Z,99336.84
2022-08-03T11:24:04.541Z,99319.69
2022-08-03T11:26:27.575Z,99325.63
2022-08-03T11:29:14.219Z,99324.75
2022-08-03T11:31:50.405Z,99315.09
2022-08-03T11:34:17.613Z,99317.72
2022-08-03T11:37:22.932Z,99325.00
2022-08-03T11:39:53.060Z,99323.16
2022-08-03T11:42:23.086Z,99325.38
2022-08-03T11:44:50.608Z,99315.09
2022-08-03T11:47:20.443Z,99311.97
2022-08-03T11:49:49.928Z,99315.91
2022-08-03T11:52:18.451Z,99305.84
2022-08-03T11:54:45.979Z,99314.06
2022-08-03T11:57:12.726Z,99310.28
2022-08-03T11:59:40.454Z,99306.66
2022-08-03T12:02:11.889Z,99301.72
2022-08-03T12:04:58.246Z,99296.44
2022-08-03T12:08:03.734Z,99296.09
2022-08-03T12:10:16.487Z,99296.09
2022-08-03T12:12:46.299Z,99284.28
2022-08-03T12:15:13.718Z,99289.06
2022-08-03T12:17:41.755Z,99284.34
2022-08-03T12:20:10.413Z,99287.34
2022-08-03T12:22:39.495Z,99280.50
2022-08-03T12:25:09.869Z,99284.34
2022-08-03T12:27:37.591Z,99290.34
2022-08-03T12:30:05.001Z,99281.69
2022-08-03T12:32:31.808Z,99266.53
2022-08-03T12:35:01.505Z,99271.78
2022-08-03T12:37:29.609Z,99271.00
2022-08-03T12:40:04.220Z,99267.59
2022-08-03T12:42:35.666Z,99271.22
2022-08-03T12:45:28.497Z,99265.50
2022-08-03T12:47:56.641Z,99259.25
2022-08-03T12:50:34.745Z,99261.22
2022-08-03T12:53:04.651Z,99253.47
2022-08-03T12:55:57.948Z,99247.34
2022-08-03T12:58:39.533Z,99242.28
2022-08-03T13:01:09.604Z,99247.38
2022-08-03T13:03:43.233Z,99246.31
2022-08-03T13:06:22.133Z,99235.88
2022-08-03T13:08:49.986Z,99238.78
2022-08-03T13:11:52.550Z,99234.75
2022-08-03T13:14:19.462Z,99230.38
2022-08-03T13:16:48.260Z,99231.44
2022-08-03T13:19:15.378Z,99240.09
2022-08-03T13:22:01.866Z,99227.50
2022-08-03T13:24:30.501Z,99222.44
2022-08-03T13:26:58.474Z,99214.03
2022-08-03T13:29:25.153Z,99218.47
2022-08-03T13:31:52.730Z,99220.97
2022-08-03T13:34:22.948Z,99221.81
2022-08-03T13:40:00.355Z,99222.84
2022-08-03T13:42:30.257Z,99211.09
2022-08-03T13:44:56.988Z,99215.78
2022-08-03T13:47:23.732Z,99222.00
2022-08-03T13:49:59.967Z,99219.81
2022-08-03T13:52:35.670Z,99215.03
2022-08-03T13:55:04.618Z,99212.31
2022-08-03T13:58:02.726Z,99201.91
2022-08-03T14:00:27.614Z,99200.63
2022-08-03T14:03:02.881Z,99202.78
2022-08-03T14:05:32.031Z,99188.53
2022-08-03T14:08:04.863Z,99203.25
2022-08-03T14:10:37.722Z,99201.47
2022-08-03T14:13:07.068Z,99188.91
2022-08-03T14:15:37.218Z,99189.66
2022-08-03T14:18:15.869Z,99191.16
2022-08-03T14:20:53.035Z,99186.19
2022-08-03T14:23:22.839Z,99201.13
2022-08-03T14:25:52.011Z,99189.59
2022-08-03T14:28:22.657Z,99196.16
2022-08-03T14:30:53.875Z,99189.97
2022-08-03T14:33:21.248Z,99189.22
2022-08-03T14:35:48.477Z,99175.56
2022-08-03T14:38:15.723Z,99186.63
2022-08-03T14:40:42.809Z,99194.72
2022-08-03T14:43:09.588Z,99179.38
2022-08-03T14:45:36.536Z,99177.47
2022-08-03T14:49:02.708Z,99179.72
2022-08-03T14:50:52.959Z,99179.38
2022-08-03T14:53:19.973Z,99179.94
2022-08-03T14:55:50.877Z,99171.06
2022-08-03T14:58:27.301Z,99172.63
2022-08-03T15:00:55.379Z,99171.94
2022-08-03T15:03:24.850Z,99165.19
2022-08-03T15:05:56.957Z,99164.22
2022-08-03T15:08:24.858Z,99172.41
2022-08-03T15:10:52.526Z,99170.31
2022-08-03T15:13:20.184Z,99172.59
2022-08-03T15:15:47.925Z,99166.59
2022-08-03T15:18:14.802Z,99167.00
2022-08-03T15:20:45.309Z,99164.41
2022-08-03T15:23:14.551Z,99166.19
2022-08-03T15:26:30.331Z,99160.53
2022-08-03T15:28:29.202Z,99160.34
2022-08-03T15:30:55.963Z,99164.13
2022-08-03T15:33:22.665Z,99161.16
2022-08-03T15:35:49.915Z,99161.88
2022-08-03T15:38:16.768Z,99167.84
2022-08-03T15:40:43.629Z,99166.88
2022-08-03T15:43:10.621Z,99162.38
2022-08-03T15:45:37.388Z,99156.34
2022-08-03T15:48:05.937Z,99144.09
2022-08-03T15:50:32.781Z,99151.28
2022-08-03T15:52:59.689Z,99146.81
2022-08-03T15:55:26.709Z,99148.31
2022-08-03T15:59:10.241Z,99140.06
2022-08-03T16:00:41.421Z,99143.69
2022-08-03T16:03:08.142Z,99140.69
2022-08-03T16:05:35.359Z,99144.38
2022-08-03T16:08:03.822Z,99145.09
2022-08-03T16:10:32.781Z,99145.50
2022-08-03T16:13:00.194Z,99144.69
2022-08-03T16:15:27.400Z,99135.25
2022-08-03T16:17:54.369Z,99144.91
2022-08-03T16:20:31.140Z,99142.06
2022-08-03T16:23:10.779Z,99139.91
2022-08-03T16:25:42.649Z,99138.41
2022-08-03T16:28:14.356Z,99139.72
2022-08-03T16:30:42.419Z,99147.25
2022-08-03T16:33:09.221Z,99140.06
2022-08-03T16:35:36.009Z,99146.44
2022-08-03T16:38:07.841Z,99145.00
2022-08-03T16:40:36.391Z,99137.31
2022-08-03T16:43:18.316Z,99135.59
2022-08-03T16:45:49.449Z,99141.63
2022-08-03T16:48:17.548Z,99141.84
2022-08-03T16:50:44.773Z,99143.25
2022-08-03T16:53:16.666Z,99140.91
2022-08-03T16:55:53.093Z,99145.97
2022-08-03T16:58:34.801Z,99152.53
2022-08-03T17:01:21.522Z,99140.91
2022-08-03T17:04:03.453Z,99151.25
2022-08-03T17:06:35.599Z,99148.50
2022-08-03T17:09:14.954Z,99146.66
2022-08-03T17:11:48.460Z,99151.88
2022-08-03T17:14:21.625Z,99156.94
2022-08-03T17:16:52.468Z,99164.81
2022-08-03T17:19:23.110Z,99163.19
2022-08-03T17:22:01.389Z,99162.91
2022-08-03T17:24:41.085Z,99172.56
2022-08-03T17:28:41.619Z,99159.22
2022-08-03T17:30:13.490Z,99166.47
2022-08-03T17:32:57.617Z,99162.19
2022-08-03T17:35:34.575Z,99165.22
2022-08-03T17:38:06.659Z,99167.66
2022-08-03T17:40:38.221Z,99160.06
2022-08-03T17:44:13.313Z,99158.44
2022-08-03T17:45:52.699Z,99168.41
2022-08-03T17:48:25.086Z,99161.56
2022-08-03T17:51:15.500Z,99173.13
2022-08-03T17:53:52.741Z,99173.75
2022-08-03T17:56:40.812Z,99174.56
2022-08-03T17:59:14.912Z,99171.44
2022-08-03T18:02:30.497Z,99175.38
2022-08-03T18:05:16.285Z,99176.56
2022-08-03T18:08:01.619Z,99170.66
2022-08-03T18:10:34.404Z,99176.63
2022-08-03T18:13:10.480Z,99170.81
2022-08-03T18:15:43.116Z,99180.44
2022-08-03T18:18:13.125Z,99181.59
2022-08-03T18:20:41.964Z,99193.34
2022-08-03T18:23:24.940Z,99187.56
2022-08-03T18:25:59.928Z,99188.81
2022-08-03T18:28:27.620Z,99195.50
2022-08-03T18:30:57.908Z,99191.25
2022-08-03T18:34:19.271Z,99188.16
2022-08-03T18:36:22.117Z,99198.00
2022-08-03T18:38:58.467Z,99192.34
2022-08-03T18:41:32.266Z,99199.31
2022-08-03T18:44:08.146Z,99202.56
2022-08-03T18:47:07.085Z,99210.75
2022-08-03T18:50:03.510Z,99207.56
2022-08-03T18:52:59.363Z,99204.59
2022-08-03T18:55:35.695Z,99208.91
2022-08-03T18:58:33.204Z,99207.69
2022-08-03T19:01:57.948Z,99212.50
2022-08-03T19:04:02.905Z,99214.22
2022-08-03T19:06:33.195Z,99214.66
2022-08-03T19:12:13.274Z,99213.78
2022-08-03T19:14:52.557Z,99221.66
2022-08-03T19:17:21.951Z,99222.25
2022-08-03T19:19:58.266Z,99225.41
2022-08-03T19:22:27.261Z,99226.38
2022-08-03T19:24:58.393Z,99222.81
2022-08-03T19:27:27.156Z,99225.13
2022-08-03T19:29:58.780Z,99229.75
2022-08-03T19:32:31.954Z,99233.16
2022-08-03T19:35:01.490Z,99224.50
2022-08-03T19:37:38.344Z,99230.38
2022-08-03T19:40:10.969Z,99227.25
2022-08-03T19:42:42.180Z,99226.25
2022-08-03T19:45:14.134Z,99226.66
2022-08-03T19:48:10.090Z,99229.00
2022-08-03T19:50:44.691Z,99226.19
2022-08-03T19:53:13.097Z,99222.66
2022-08-03T19:55:48.983Z,99233.16
2022-08-03T19:58:17.557Z,99227.94
2022-08-03T20:00:51.527Z,99225.56
2022-08-03T20:03:22.025Z,99224.94
2022-08-03T20:05:52.216Z,99228.50
2022-08-03T20:08:21.902Z,99222.38
2022-08-03T20:10:49.620Z,99225.53
2022-08-03T20:13:19.426Z,99225.88
2022-08-03T20:15:46.323Z,99224.53
2022-08-03T20:18:16.869Z,99229.38
2022-08-03T20:20:48.413Z,99227.44
2022-08-03T20:23:19.752Z,99229.72
2022-08-03T20:25:59.871Z,99229.16
2022-08-03T20:28:50.459Z,99229.22
2022-08-03T20:31:21.639Z,99232.91
2022-08-03T20:33:50.851Z,99230.56
2022-08-03T20:36:18.878Z,99226.19
2022-08-03T20:38:47.900Z,99225.22
2022-08-03T20:41:17.755Z,99223.88
2022-08-03T20:43:46.500Z,99218.97
2022-08-03T20:46:32.105Z,99224.59
2022-08-03T20:49:04.335Z,99223.19
2022-08-03T20:51:50.697Z,99219.13
2022-08-03T20:54:28.884Z,99212.88
2022-08-03T20:56:58.301Z,99211.81
2022-08-03T20:59:35.019Z,99218.09
2022-08-03T21:02:05.961Z,99217.97
2022-08-03T21:04:32.712Z,99218.13
2022-08-03T21:07:16.342Z,99220.47
2022-08-03T21:09:57.117Z,99222.69
2022-08-03T21:12:49.546Z,99224.38
2022-08-03T21:13:01.457Z,99224.34
2022-08-03T21:16:06.938Z,99219.75
2022-08-03T21:18:11.070Z,99220.00
2022-08-03T21:20:40.935Z,99226.56
2022-08-03T21:23:09.739Z,99230.53
2022-08-03T21:25:39.866Z,99225.94
2022-08-03T21:28:10.379Z,99226.38
2022-08-03T21:30:37.636Z,99230.38
2022-08-03T21:33:06.858Z,99223.59
2022-08-03T21:35:34.604Z,99225.88
2022-08-03T21:38:30.881Z,99224.22
2022-08-03T21:40:57.720Z,99226.91
2022-08-03T21:43:24.712Z,99231.69
2022-08-03T21:46:03.821Z,99242.47
2022-08-03T21:48:39.076Z,99233.16
2022-08-03T21:51:07.788Z,99231.22
2022-08-03T21:54:00.340Z,99234.38
2022-08-03T21:56:22.406Z,99230.75
2022-08-03T21:59:03.210Z,99228.44
2022-08-03T22:01:35.361Z,99222.31
2022-08-03T22:04:07.635Z,99231.84
2022-08-03T22:06:42.475Z,99231.97
2022-08-03T22:09:09.684Z,99231.47
2022-08-03T22:11:39.964Z,99237.47
2022-08-03T22:14:06.721Z,99240.34
2022-08-03T22:16:33.502Z,99235.88
2022-08-03T22:19:00.277Z,99239.50
2022-08-03T22:21:36.146Z,99244.31
2022-08-03T22:24:05.812Z,99243.34
2022-08-03T22:26:35.842Z,99241.72
2022-08-03T22:29:07.406Z,99242.53
2022-08-03T22:31:58.566Z,99248.19
2022-08-03T22:34:26.985Z,99244.19
2022-08-03T22:37:01.489Z,99241.13
2022-08-03T22:39:31.369Z,99237.25
2022-08-03T22:42:01.412Z,99247.38
2022-08-03T22:44:28.141Z,99247.06
2022-08-03T22:46:55.618Z,99247.59
2022-08-03T22:49:22.883Z,99242.66
2022-08-03T22:51:52.693Z,99244.09
2022-08-03T22:54:19.597Z,99241.25
2022-08-03T22:56:46.961Z,99236.00
2022-08-03T22:59:41.100Z,99236.00
2022-08-03T23:02:20.736Z,99241.38
2022-08-03T23:04:55.041Z,99242.91
2022-08-03T23:07:30.294Z,99238.34
2022-08-03T23:09:58.778Z,99238.44
2022-08-03T23:12:29.617Z,99234.81
2022-08-03T23:15:01.095Z,99236.13
2022-08-03T23:17:30.690Z,99237.06
2022-08-03T23:20:06.318Z,99233.75
2022-08-03T23:22:34.837Z,99244.53
2022-08-03T23:25:03.958Z,99239.25
2022-08-03T23:27:32.880Z,99239.16
2022-08-03T23:30:01.115Z,99232.84
2022-08-03T23:32:30.799Z,99238.31
2022-08-03T23:35:21.031Z,99235.75
2022-08-03T23:38:04.812Z,99232.34
2022-08-03T23:40:37.610Z,99240.53
2022-08-03T23:43:07.572Z,99237.94
2022-08-03T23:45:44.488Z,99241.28
2022-08-03T23:48:12.432Z,99238.63
2022-08-03T23:50:45.885Z,99237.72
2022-08-03T23:53:21.647Z,99241.75
2022-08-03T23:56:13.601Z,99234.34
2022-08-03T23:58:43.264Z,99233.09
